sensor_id;sensor_type;location;lat;lon;timestamp;temperature;humidity
15636;DHT22;7917;50.818;6.972;2023-06-24T00:01:07;17.00;1.00
15636;DHT22;7917;50.818;6.972;2023-06-24T00:03:34;17.00;99.90
15636;DHT22;7917;50.818;6.972;2023-06-24T00:06:03;17.00;99.90
15636;DHT22;7917;50.818;6.972;2023-06-24T00:08:30;17.00;1.00
15636;DHT22;7917;50.818;6.972;2023-06-24T00:11:00;17.00;1.00
15636;DHT22;7917;50.818;6.972;2023-06-24T00:13:31;16.90;1.00
15636;DHT22;7917;50.818;6.972;2023-06-24T00:15:58;16.90;1.00
15636;DHT22;7917;50.818;6.972;2023-06-24T00:18:25;16.90;1.00
15636;DHT22;7917;50.818;6.972;2023-06-24T00:20:58;16.80;56.30
15636;DHT22;7917;50.818;6.972;2023-06-24T00:23:25;16.80;99.90
15636;DHT22;7917;50.818;6.972;2023-06-24T00:25:52;16.80;99.90
15636;DHT22;7917;50.818;6.972;2023-06-24T00:28:19;16.80;99.90
15636;DHT22;7917;50.818;6.972;2023-06-24T00:30:46;16.80;99.90
15636;DHT22;7917;50.818;6.972;2023-06-24T00:33:14;16.80;99.90
15636;DHT22;7917;50.818;6.972;2023-06-24T00:35:41;16.80;99.90
15636;DHT22;7917;50.818;6.972;2023-06-24T00:38:08;16.70;99.90
15636;DHT22;7917;50.818;6.972;2023-06-24T00:40:36;16.70;99.90
15636;DHT22;7917;50.818;6.972;2023-06-24T00:43:03;16.80;99.90
15636;DHT22;7917;50.818;6.972;2023-06-24T00:45:31;16.80;99.90
15636;DHT22;7917;50.818;6.972;2023-06-24T00:47:59;16.70;99.90
15636;DHT22;7917;50.818;6.972;2023-06-24T00:50:28;16.70;99.90
15636;DHT22;7917;50.818;6.972;2023-06-24T00:52:54;16.70;99.90
15636;DHT22;7917;50.818;6.972;2023-06-24T00:55:21;16.70;99.90
15636;DHT22;7917;50.818;6.972;2023-06-24T00:57:50;16.60;99.90
15636;DHT22;7917;50.818;6.972;2023-06-24T01:00:18;16.60;99.90
15636;DHT22;7917;50.818;6.972;2023-06-24T01:02:47;16.60;99.90
15636;DHT22;7917;50.818;6.972;2023-06-24T01:05:14;16.50;99.90
15636;DHT22;7917;50.818;6.972;2023-06-24T01:07:43;16.50;99.90
15636;DHT22;7917;50.818;6.972;2023-06-24T01:10:10;16.50;99.90
15636;DHT22;7917;50.818;6.972;2023-06-24T01:12:40;16.50;99.90
15636;DHT22;7917;50.818;6.972;2023-06-24T01:15:10;16.40;99.90
15636;DHT22;7917;50.818;6.972;2023-06-24T01:17:42;16.40;99.90
15636;DHT22;7917;50.818;6.972;2023-06-24T01:20:14;16.40;99.90
15636;DHT22;7917;50.818;6.972;2023-06-24T01:23:14;16.50;99.90
15636;DHT22;7917;50.818;6.972;2023-06-24T01:26:05;16.50;99.90
15636;DHT22;7917;50.818;6.972;2023-06-24T01:28:58;16.40;99.90
15636;DHT22;7917;50.818;6.972;2023-06-24T01:31:39;16.40;99.90
15636;DHT22;7917;50.818;6.972;2023-06-24T01:34:13;16.30;99.90
15636;DHT22;7917;50.818;6.972;2023-06-24T01:37:01;16.30;99.90
15636;DHT22;7917;50.818;6.972;2023-06-24T01:39:32;16.30;99.90
15636;DHT22;7917;50.818;6.972;2023-06-24T01:42:06;16.20;99.90
15636;DHT22;7917;50.818;6.972;2023-06-24T01:44:35;16.30;99.90
15636;DHT22;7917;50.818;6.972;2023-06-24T01:47:06;16.20;99.90
15636;DHT22;7917;50.818;6.972;2023-06-24T01:49:39;16.20;99.90
15636;DHT22;7917;50.818;6.972;2023-06-24T01:52:08;16.20;99.90
15636;DHT22;7917;50.818;6.972;2023-06-24T01:54:40;16.20;99.90
15636;DHT22;7917;50.818;6.972;2023-06-24T01:57:09;16.20;99.90
15636;DHT22;7917;50.818;6.972;2023-06-24T01:59:39;16.10;99.90
15636;DHT22;7917;50.818;6.972;2023-06-24T02:02:08;16.10;99.90
15636;DHT22;7917;50.818;6.972;2023-06-24T02:04:35;16.10;99.90
15636;DHT22;7917;50.818;6.972;2023-06-24T02:07:04;16.10;99.90
15636;DHT22;7917;50.818;6.972;2023-06-24T02:09:32;16.10;99.90
15636;DHT22;7917;50.818;6.972;2023-06-24T02:12:01;16.10;99.90
15636;DHT22;7917;50.818;6.972;2023-06-24T02:14:30;16.10;99.90
15636;DHT22;7917;50.818;6.972;2023-06-24T02:17:00;16.10;99.90
15636;DHT22;7917;50.818;6.972;2023-06-24T02:19:30;16.10;99.90
15636;DHT22;7917;50.818;6.972;2023-06-24T02:21:58;16.00;99.90
15636;DHT22;7917;50.818;6.972;2023-06-24T02:24:27;16.00;99.90
15636;DHT22;7917;50.818;6.972;2023-06-24T02:26:56;16.00;99.90
15636;DHT22;7917;50.818;6.972;2023-06-24T02:29:26;16.00;99.90
15636;DHT22;7917;50.818;6.972;2023-06-24T02:31:53;16.00;99.90
15636;DHT22;7917;50.818;6.972;2023-06-24T02:34:22;15.90;99.90
15636;DHT22;7917;50.818;6.972;2023-06-24T02:36:50;15.90;99.90
15636;DHT22;7917;50.818;6.972;2023-06-24T02:39:20;15.90;99.90
15636;DHT22;7917;50.818;6.972;2023-06-24T02:41:48;15.90;99.90
15636;DHT22;7917;50.818;6.972;2023-06-24T02:44:16;15.90;99.90
15636;DHT22;7917;50.818;6.972;2023-06-24T02:46:47;15.80;99.90
15636;DHT22;7917;50.818;6.972;2023-06-24T02:49:15;15.90;99.90
15636;DHT22;7917;50.818;6.972;2023-06-24T02:51:44;15.90;99.90
15636;DHT22;7917;50.818;6.972;2023-06-24T02:54:13;15.80;99.90
15636;DHT22;7917;50.818;6.972;2023-06-24T02:56:42;15.80;99.90
15636;DHT22;7917;50.818;6.972;2023-06-24T02:59:10;15.80;99.90
15636;DHT22;7917;50.818;6.972;2023-06-24T03:01:38;15.70;99.90
15636;DHT22;7917;50.818;6.972;2023-06-24T03:04:06;15.70;99.90
15636;DHT22;7917;50.818;6.972;2023-06-24T03:06:33;15.70;99.90
15636;DHT22;7917;50.818;6.972;2023-06-24T03:09:02;15.70;99.90
15636;DHT22;7917;50.818;6.972;2023-06-24T03:11:31;15.70;99.90
15636;DHT22;7917;50.818;6.972;2023-06-24T03:13:59;15.70;99.90
15636;DHT22;7917;50.818;6.972;2023-06-24T03:16:26;15.70;99.90
15636;DHT22;7917;50.818;6.972;2023-06-24T03:18:53;15.70;99.90
15636;DHT22;7917;50.818;6.972;2023-06-24T03:21:20;15.60;99.90
15636;DHT22;7917;50.818;6.972;2023-06-24T03:23:50;15.60;99.90
15636;DHT22;7917;50.818;6.972;2023-06-24T03:26:17;15.70;99.90
15636;DHT22;7917;50.818;6.972;2023-06-24T03:28:45;15.60;99.90
15636;DHT22;7917;50.818;6.972;2023-06-24T03:31:11;15.60;99.90
15636;DHT22;7917;50.818;6.972;2023-06-24T03:33:39;15.60;99.90
15636;DHT22;7917;50.818;6.972;2023-06-24T03:36:10;15.60;99.90
15636;DHT22;7917;50.818;6.972;2023-06-24T03:38:37;15.60;99.90
15636;DHT22;7917;50.818;6.972;2023-06-24T03:41:04;15.60;99.90
15636;DHT22;7917;50.818;6.972;2023-06-24T03:43:31;15.60;99.90
15636;DHT22;7917;50.818;6.972;2023-06-24T03:45:59;15.60;99.90
15636;DHT22;7917;50.818;6.972;2023-06-24T03:48:26;15.70;99.90
15636;DHT22;7917;50.818;6.972;2023-06-24T03:50:53;15.70;99.90
15636;DHT22;7917;50.818;6.972;2023-06-24T03:53:20;15.70;99.90
15636;DHT22;7917;50.818;6.972;2023-06-24T03:55:59;15.70;99.90
15636;DHT22;7917;50.818;6.972;2023-06-24T03:58:27;15.70;99.90
15636;DHT22;7917;50.818;6.972;2023-06-24T04:00:54;15.80;99.90
15636;DHT22;7917;50.818;6.972;2023-06-24T04:03:24;15.80;99.90
15636;DHT22;7917;50.818;6.972;2023-06-24T04:05:53;15.80;99.90
15636;DHT22;7917;50.818;6.972;2023-06-24T04:08:24;15.80;99.90
15636;DHT22;7917;50.818;6.972;2023-06-24T04:10:55;15.80;99.90
15636;DHT22;7917;50.818;6.972;2023-06-24T04:13:22;15.80;99.90
15636;DHT22;7917;50.818;6.972;2023-06-24T04:15:49;15.90;99.90
15636;DHT22;7917;50.818;6.972;2023-06-24T04:18:15;15.90;99.90
15636;DHT22;7917;50.818;6.972;2023-06-24T04:20:43;16.00;99.90
15636;DHT22;7917;50.818;6.972;2023-06-24T04:23:10;16.00;99.90
15636;DHT22;7917;50.818;6.972;2023-06-24T04:25:37;16.00;99.90
15636;DHT22;7917;50.818;6.972;2023-06-24T04:28:04;16.10;99.90
15636;DHT22;7917;50.818;6.972;2023-06-24T04:30:31;16.10;99.90
15636;DHT22;7917;50.818;6.972;2023-06-24T04:32:58;16.20;99.90
15636;DHT22;7917;50.818;6.972;2023-06-24T04:35:25;16.20;99.90
15636;DHT22;7917;50.818;6.972;2023-06-24T04:37:53;16.30;99.90
15636;DHT22;7917;50.818;6.972;2023-06-24T04:40:20;16.30;99.90
15636;DHT22;7917;50.818;6.972;2023-06-24T04:42:47;16.40;99.90
15636;DHT22;7917;50.818;6.972;2023-06-24T04:45:14;16.50;99.90
15636;DHT22;7917;50.818;6.972;2023-06-24T04:47:41;16.60;99.90
15636;DHT22;7917;50.818;6.972;2023-06-24T04:50:09;16.70;99.90
15636;DHT22;7917;50.818;6.972;2023-06-24T04:52:36;16.70;99.90
15636;DHT22;7917;50.818;6.972;2023-06-24T04:55:05;16.80;99.90
15636;DHT22;7917;50.818;6.972;2023-06-24T04:57:32;16.90;99.90
15636;DHT22;7917;50.818;6.972;2023-06-24T05:00:00;17.00;99.90
15636;DHT22;7917;50.818;6.972;2023-06-24T05:02:27;17.10;99.90
15636;DHT22;7917;50.818;6.972;2023-06-24T05:04:54;17.20;99.90
15636;DHT22;7917;50.818;6.972;2023-06-24T05:07:21;17.30;22.20
15636;DHT22;7917;50.818;6.972;2023-06-24T05:09:48;17.40;1.00
15636;DHT22;7917;50.818;6.972;2023-06-24T05:12:17;17.50;99.90
15636;DHT22;7917;50.818;6.972;2023-06-24T05:14:48;17.60;99.90
15636;DHT22;7917;50.818;6.972;2023-06-24T05:17:15;17.80;99.90
15636;DHT22;7917;50.818;6.972;2023-06-24T05:19:42;17.90;1.00
15636;DHT22;7917;50.818;6.972;2023-06-24T05:22:09;18.10;99.90
15636;DHT22;7917;50.818;6.972;2023-06-24T05:24:36;18.20;1.00
15636;DHT22;7917;50.818;6.972;2023-06-24T05:27:05;18.40;99.90
15636;DHT22;7917;50.818;6.972;2023-06-24T05:29:33;18.50;1.00
15636;DHT22;7917;50.818;6.972;2023-06-24T05:32:00;18.70;99.90
15636;DHT22;7917;50.818;6.972;2023-06-24T05:34:29;18.80;99.90
15636;DHT22;7917;50.818;6.972;2023-06-24T05:36:59;18.90;1.00
15636;DHT22;7917;50.818;6.972;2023-06-24T05:39:26;19.00;1.00
15636;DHT22;7917;50.818;6.972;2023-06-24T05:41:53;19.00;99.90
15636;DHT22;7917;50.818;6.972;2023-06-24T05:44:20;19.10;1.00
15636;DHT22;7917;50.818;6.972;2023-06-24T05:46:50;19.20;1.00
15636;DHT22;7917;50.818;6.972;2023-06-24T05:49:17;19.20;99.90
15636;DHT22;7917;50.818;6.972;2023-06-24T05:51:44;19.40;99.90
15636;DHT22;7917;50.818;6.972;2023-06-24T05:54:11;19.40;99.90
15636;DHT22;7917;50.818;6.972;2023-06-24T05:56:38;19.60;99.90
15636;DHT22;7917;50.818;6.972;2023-06-24T05:59:04;19.70;99.90
15636;DHT22;7917;50.818;6.972;2023-06-24T06:01:31;19.90;99.90
15636;DHT22;7917;50.818;6.972;2023-06-24T06:03:59;20.00;99.90
15636;DHT22;7917;50.818;6.972;2023-06-24T06:06:26;20.00;99.90
15636;DHT22;7917;50.818;6.972;2023-06-24T06:08:53;20.20;99.90
15636;DHT22;7917;50.818;6.972;2023-06-24T06:11:19;20.40;99.90
15636;DHT22;7917;50.818;6.972;2023-06-24T06:13:46;20.50;99.90
15636;DHT22;7917;50.818;6.972;2023-06-24T06:16:13;20.60;58.70
15636;DHT22;7917;50.818;6.972;2023-06-24T06:18:41;20.70;6.80
15636;DHT22;7917;50.818;6.972;2023-06-24T06:21:08;20.80;99.90
15636;DHT22;7917;50.818;6.972;2023-06-24T06:23:35;20.90;78.10
15636;DHT22;7917;50.818;6.972;2023-06-24T06:26:02;21.10;45.70
15636;DHT22;7917;50.818;6.972;2023-06-24T06:28:29;21.20;31.50
15636;DHT22;7917;50.818;6.972;2023-06-24T06:30:56;21.40;45.10
15636;DHT22;7917;50.818;6.972;2023-06-24T06:33:23;21.50;1.00
15636;DHT22;7917;50.818;6.972;2023-06-24T06:35:50;21.50;1.00
15636;DHT22;7917;50.818;6.972;2023-06-24T06:38:18;21.70;1.00
15636;DHT22;7917;50.818;6.972;2023-06-24T06:40:48;21.60;1.00
15636;DHT22;7917;50.818;6.972;2023-06-24T06:43:15;21.70;1.00
15636;DHT22;7917;50.818;6.972;2023-06-24T06:45:42;21.90;1.00
15636;DHT22;7917;50.818;6.972;2023-06-24T06:48:09;22.10;1.00
15636;DHT22;7917;50.818;6.972;2023-06-24T06:50:39;22.40;1.00
15636;DHT22;7917;50.818;6.972;2023-06-24T06:53:05;22.60;1.00
15636;DHT22;7917;50.818;6.972;2023-06-24T06:55:33;22.70;1.00
15636;DHT22;7917;50.818;6.972;2023-06-24T06:58:00;22.90;1.00
15636;DHT22;7917;50.818;6.972;2023-06-24T07:00:27;22.90;1.00
15636;DHT22;7917;50.818;6.972;2023-06-24T07:02:54;23.20;1.00
15636;DHT22;7917;50.818;6.972;2023-06-24T07:05:21;23.50;1.00
15636;DHT22;7917;50.818;6.972;2023-06-24T07:07:54;23.60;99.90
15636;DHT22;7917;50.818;6.972;2023-06-24T07:10:21;23.70;99.90
15636;DHT22;7917;50.818;6.972;2023-06-24T07:12:48;23.60;99.90
15636;DHT22;7917;50.818;6.972;2023-06-24T07:15:17;23.60;99.90
15636;DHT22;7917;50.818;6.972;2023-06-24T07:17:45;23.50;99.90
15636;DHT22;7917;50.818;6.972;2023-06-24T07:20:12;23.40;99.90
15636;DHT22;7917;50.818;6.972;2023-06-24T07:22:39;23.30;99.90
15636;DHT22;7917;50.818;6.972;2023-06-24T07:25:06;23.20;99.90
15636;DHT22;7917;50.818;6.972;2023-06-24T07:27:36;23.30;99.90
15636;DHT22;7917;50.818;6.972;2023-06-24T07:30:06;23.40;99.90
15636;DHT22;7917;50.818;6.972;2023-06-24T07:32:33;23.10;99.90
15636;DHT22;7917;50.818;6.972;2023-06-24T07:35:00;23.30;99.90
15636;DHT22;7917;50.818;6.972;2023-06-24T07:37:27;23.60;99.90
15636;DHT22;7917;50.818;6.972;2023-06-24T07:39:54;23.60;99.90
15636;DHT22;7917;50.818;6.972;2023-06-24T07:42:21;23.30;99.90
15636;DHT22;7917;50.818;6.972;2023-06-24T07:44:48;23.40;99.90
15636;DHT22;7917;50.818;6.972;2023-06-24T07:47:18;23.70;99.90
15636;DHT22;7917;50.818;6.972;2023-06-24T07:49:46;24.00;99.90
15636;DHT22;7917;50.818;6.972;2023-06-24T07:52:16;24.20;99.90
15636;DHT22;7917;50.818;6.972;2023-06-24T07:54:43;24.40;99.90
15636;DHT22;7917;50.818;6.972;2023-06-24T07:57:10;24.70;99.90
15636;DHT22;7917;50.818;6.972;2023-06-24T07:59:37;24.70;99.90
15636;DHT22;7917;50.818;6.972;2023-06-24T08:02:04;24.90;99.90
15636;DHT22;7917;50.818;6.972;2023-06-24T08:04:33;24.70;99.90
15636;DHT22;7917;50.818;6.972;2023-06-24T08:07:00;24.80;99.90
15636;DHT22;7917;50.818;6.972;2023-06-24T08:09:29;24.90;99.90
15636;DHT22;7917;50.818;6.972;2023-06-24T08:11:56;25.10;99.90
15636;DHT22;7917;50.818;6.972;2023-06-24T08:14:23;25.30;99.90
15636;DHT22;7917;50.818;6.972;2023-06-24T08:16:50;25.40;99.90
15636;DHT22;7917;50.818;6.972;2023-06-24T08:19:17;25.50;99.90
15636;DHT22;7917;50.818;6.972;2023-06-24T08:21:45;25.70;99.90
15636;DHT22;7917;50.818;6.972;2023-06-24T08:24:12;25.80;99.90
15636;DHT22;7917;50.818;6.972;2023-06-24T08:26:39;26.00;99.90
15636;DHT22;7917;50.818;6.972;2023-06-24T08:29:09;26.00;99.90
15636;DHT22;7917;50.818;6.972;2023-06-24T08:31:36;26.00;99.90
15636;DHT22;7917;50.818;6.972;2023-06-24T08:34:03;26.00;99.90
15636;DHT22;7917;50.818;6.972;2023-06-24T08:36:32;26.00;99.90
15636;DHT22;7917;50.818;6.972;2023-06-24T08:39:00;26.00;99.90
15636;DHT22;7917;50.818;6.972;2023-06-24T08:41:27;25.60;99.90
15636;DHT22;7917;50.818;6.972;2023-06-24T08:43:54;25.50;99.90
15636;DHT22;7917;50.818;6.972;2023-06-24T08:46:24;25.80;99.90
15636;DHT22;7917;50.818;6.972;2023-06-24T08:48:57;26.20;99.90
15636;DHT22;7917;50.818;6.972;2023-06-24T08:51:29;26.20;99.90
15636;DHT22;7917;50.818;6.972;2023-06-24T08:54:00;26.50;99.90
15636;DHT22;7917;50.818;6.972;2023-06-24T08:56:28;26.70;99.90
15636;DHT22;7917;50.818;6.972;2023-06-24T08:59:07;26.70;99.90
15636;DHT22;7917;50.818;6.972;2023-06-24T09:01:35;26.90;99.90
15636;DHT22;7917;50.818;6.972;2023-06-24T09:04:03;26.80;99.90
15636;DHT22;7917;50.818;6.972;2023-06-24T09:06:36;26.90;99.90
15636;DHT22;7917;50.818;6.972;2023-06-24T09:09:04;26.90;99.90
15636;DHT22;7917;50.818;6.972;2023-06-24T09:11:31;26.60;99.90
15636;DHT22;7917;50.818;6.972;2023-06-24T09:14:00;26.50;99.90
15636;DHT22;7917;50.818;6.972;2023-06-24T09:16:27;26.30;99.90
15636;DHT22;7917;50.818;6.972;2023-06-24T09:18:55;26.30;99.90
15636;DHT22;7917;50.818;6.972;2023-06-24T09:21:23;26.50;99.90
15636;DHT22;7917;50.818;6.972;2023-06-24T09:23:53;26.70;99.90
15636;DHT22;7917;50.818;6.972;2023-06-24T09:26:23;26.80;99.90
15636;DHT22;7917;50.818;6.972;2023-06-24T09:28:51;26.80;99.90
15636;DHT22;7917;50.818;6.972;2023-06-24T09:31:18;27.00;99.90
15636;DHT22;7917;50.818;6.972;2023-06-24T09:33:46;27.50;99.90
15636;DHT22;7917;50.818;6.972;2023-06-24T09:36:14;27.20;99.90
15636;DHT22;7917;50.818;6.972;2023-06-24T09:38:42;27.50;99.90
15636;DHT22;7917;50.818;6.972;2023-06-24T09:41:11;27.90;99.90
15636;DHT22;7917;50.818;6.972;2023-06-24T09:43:40;27.60;99.90
15636;DHT22;7917;50.818;6.972;2023-06-24T09:46:08;27.70;99.90
15636;DHT22;7917;50.818;6.972;2023-06-24T09:48:36;27.80;99.90
15636;DHT22;7917;50.818;6.972;2023-06-24T09:51:04;28.00;99.90
15636;DHT22;7917;50.818;6.972;2023-06-24T09:53:32;28.20;72.30
15636;DHT22;7917;50.818;6.972;2023-06-24T09:56:00;28.20;28.80
15636;DHT22;7917;50.818;6.972;2023-06-24T09:58:28;27.80;59.70
15636;DHT22;7917;50.818;6.972;2023-06-24T10:00:59;27.80;81.20
15636;DHT22;7917;50.818;6.972;2023-06-24T10:03:28;28.00;93.50
15636;DHT22;7917;50.818;6.972;2023-06-24T10:05:56;28.30;60.90
15636;DHT22;7917;50.818;6.972;2023-06-24T10:08:24;28.30;38.70
15636;DHT22;7917;50.818;6.972;2023-06-24T10:10:54;28.30;32.70
15636;DHT22;7917;50.818;6.972;2023-06-24T10:13:22;28.00;31.90
15636;DHT22;7917;50.818;6.972;2023-06-24T10:15:49;27.70;47.70
15636;DHT22;7917;50.818;6.972;2023-06-24T10:18:37;27.70;21.10
15636;DHT22;7917;50.818;6.972;2023-06-24T10:21:05;27.80;64.50
15636;DHT22;7917;50.818;6.972;2023-06-24T10:23:39;27.80;19.30
15636;DHT22;7917;50.818;6.972;2023-06-24T10:26:08;27.90;28.60
15636;DHT22;7917;50.818;6.972;2023-06-24T10:31:53;28.30;1.00
15636;DHT22;7917;50.818;6.972;2023-06-24T10:34:24;28.80;21.30
15636;DHT22;7917;50.818;6.972;2023-06-24T10:37:01;28.90;1.10
15636;DHT22;7917;50.818;6.972;2023-06-24T10:39:48;29.00;1.00
15636;DHT22;7917;50.818;6.972;2023-06-24T10:42:28;29.10;1.00
15636;DHT22;7917;50.818;6.972;2023-06-24T10:44:57;28.90;1.00
15636;DHT22;7917;50.818;6.972;2023-06-24T10:47:25;28.90;1.00
15636;DHT22;7917;50.818;6.972;2023-06-24T10:49:54;28.80;1.00
15636;DHT22;7917;50.818;6.972;2023-06-24T10:52:22;28.50;1.00
15636;DHT22;7917;50.818;6.972;2023-06-24T10:54:51;28.40;1.00
15636;DHT22;7917;50.818;6.972;2023-06-24T10:57:23;28.50;1.00
15636;DHT22;7917;50.818;6.972;2023-06-24T10:59:51;28.50;25.20
15636;DHT22;7917;50.818;6.972;2023-06-24T11:02:24;28.70;2.30
15636;DHT22;7917;50.818;6.972;2023-06-24T11:04:53;28.30;1.00
15636;DHT22;7917;50.818;6.972;2023-06-24T11:07:21;27.80;1.00
15636;DHT22;7917;50.818;6.972;2023-06-24T11:09:49;28.10;1.00
15636;DHT22;7917;50.818;6.972;2023-06-24T11:12:17;28.30;1.00
15636;DHT22;7917;50.818;6.972;2023-06-24T11:14:45;28.50;1.00
15636;DHT22;7917;50.818;6.972;2023-06-24T11:17:13;28.80;1.00
15636;DHT22;7917;50.818;6.972;2023-06-24T11:19:40;28.90;1.00
15636;DHT22;7917;50.818;6.972;2023-06-24T11:22:10;29.10;1.00
15636;DHT22;7917;50.818;6.972;2023-06-24T11:24:37;29.10;1.00
15636;DHT22;7917;50.818;6.972;2023-06-24T11:27:06;29.40;1.00
15636;DHT22;7917;50.818;6.972;2023-06-24T11:29:36;29.60;1.00
15636;DHT22;7917;50.818;6.972;2023-06-24T11:32:08;29.50;1.00
15636;DHT22;7917;50.818;6.972;2023-06-24T11:34:36;29.80;1.00
15636;DHT22;7917;50.818;6.972;2023-06-24T11:37:12;30.00;1.00
15636;DHT22;7917;50.818;6.972;2023-06-24T11:39:39;30.10;1.00
15636;DHT22;7917;50.818;6.972;2023-06-24T11:42:08;30.00;1.00
15636;DHT22;7917;50.818;6.972;2023-06-24T11:44:35;29.60;1.00
15636;DHT22;7917;50.818;6.972;2023-06-24T11:47:07;29.80;1.00
15636;DHT22;7917;50.818;6.972;2023-06-24T11:49:48;29.80;1.00
15636;DHT22;7917;50.818;6.972;2023-06-24T11:52:16;30.10;1.00
15636;DHT22;7917;50.818;6.972;2023-06-24T11:54:44;29.90;1.00
15636;DHT22;7917;50.818;6.972;2023-06-24T11:57:52;29.90;1.00
15636;DHT22;7917;50.818;6.972;2023-06-24T12:00:23;29.80;1.00
15636;DHT22;7917;50.818;6.972;2023-06-24T12:02:52;30.00;1.00
15636;DHT22;7917;50.818;6.972;2023-06-24T12:05:27;29.90;1.00
15636;DHT22;7917;50.818;6.972;2023-06-24T12:07:59;30.10;1.00
15636;DHT22;7917;50.818;6.972;2023-06-24T12:10:26;30.30;1.00
15636;DHT22;7917;50.818;6.972;2023-06-24T12:12:55;30.70;1.00
15636;DHT22;7917;50.818;6.972;2023-06-24T12:15:22;30.40;1.00
15636;DHT22;7917;50.818;6.972;2023-06-24T12:17:49;30.30;1.00
15636;DHT22;7917;50.818;6.972;2023-06-24T12:20:17;30.40;1.00
15636;DHT22;7917;50.818;6.972;2023-06-24T12:22:45;30.70;1.00
15636;DHT22;7917;50.818;6.972;2023-06-24T12:25:12;31.00;1.00
15636;DHT22;7917;50.818;6.972;2023-06-24T12:27:41;30.60;1.00
15636;DHT22;7917;50.818;6.972;2023-06-24T12:30:09;29.90;1.00
15636;DHT22;7917;50.818;6.972;2023-06-24T12:32:37;30.10;1.00
15636;DHT22;7917;50.818;6.972;2023-06-24T12:35:05;29.80;1.00
15636;DHT22;7917;50.818;6.972;2023-06-24T12:37:34;29.70;1.00
15636;DHT22;7917;50.818;6.972;2023-06-24T12:40:01;29.80;1.00
15636;DHT22;7917;50.818;6.972;2023-06-24T12:42:29;30.00;1.00
15636;DHT22;7917;50.818;6.972;2023-06-24T12:44:57;30.40;1.00
15636;DHT22;7917;50.818;6.972;2023-06-24T12:47:24;30.60;1.00
15636;DHT22;7917;50.818;6.972;2023-06-24T12:49:50;30.60;1.00
15636;DHT22;7917;50.818;6.972;2023-06-24T12:52:19;30.80;1.00
15636;DHT22;7917;50.818;6.972;2023-06-24T12:54:52;30.60;1.00
15636;DHT22;7917;50.818;6.972;2023-06-24T12:57:19;30.30;1.00
15636;DHT22;7917;50.818;6.972;2023-06-24T12:59:47;30.60;1.00
15636;DHT22;7917;50.818;6.972;2023-06-24T13:02:14;30.70;1.00
15636;DHT22;7917;50.818;6.972;2023-06-24T13:04:44;30.40;1.00
15636;DHT22;7917;50.818;6.972;2023-06-24T13:07:11;30.60;1.00
15636;DHT22;7917;50.818;6.972;2023-06-24T13:09:38;30.30;1.00
15636;DHT22;7917;50.818;6.972;2023-06-24T13:12:05;30.60;1.00
15636;DHT22;7917;50.818;6.972;2023-06-24T13:14:34;30.70;1.00
15636;DHT22;7917;50.818;6.972;2023-06-24T13:17:01;31.00;1.00
15636;DHT22;7917;50.818;6.972;2023-06-24T13:19:29;31.00;1.00
15636;DHT22;7917;50.818;6.972;2023-06-24T13:21:56;30.70;1.00
15636;DHT22;7917;50.818;6.972;2023-06-24T13:24:23;30.80;1.00
15636;DHT22;7917;50.818;6.972;2023-06-24T13:26:51;30.80;1.00
15636;DHT22;7917;50.818;6.972;2023-06-24T13:29:18;30.40;1.00
15636;DHT22;7917;50.818;6.972;2023-06-24T13:31:45;30.40;1.00
15636;DHT22;7917;50.818;6.972;2023-06-24T13:34:13;30.30;1.00
15636;DHT22;7917;50.818;6.972;2023-06-24T13:36:41;30.40;1.00
15636;DHT22;7917;50.818;6.972;2023-06-24T13:39:09;30.70;1.00
15636;DHT22;7917;50.818;6.972;2023-06-24T13:41:38;30.90;1.00
15636;DHT22;7917;50.818;6.972;2023-06-24T13:44:05;30.90;1.00
15636;DHT22;7917;50.818;6.972;2023-06-24T13:46:33;30.80;1.00
15636;DHT22;7917;50.818;6.972;2023-06-24T13:49:00;30.40;1.00
15636;DHT22;7917;50.818;6.972;2023-06-24T13:51:29;30.60;1.00
15636;DHT22;7917;50.818;6.972;2023-06-24T13:53:56;30.50;1.00
15636;DHT22;7917;50.818;6.972;2023-06-24T13:56:24;30.70;1.00
15636;DHT22;7917;50.818;6.972;2023-06-24T13:58:52;30.70;1.00
15636;DHT22;7917;50.818;6.972;2023-06-24T14:01:19;30.90;1.00
15636;DHT22;7917;50.818;6.972;2023-06-24T14:03:46;30.60;1.00
15636;DHT22;7917;50.818;6.972;2023-06-24T14:06:14;30.40;1.00
15636;DHT22;7917;50.818;6.972;2023-06-24T14:08:42;30.60;1.00
15636;DHT22;7917;50.818;6.972;2023-06-24T14:11:10;30.50;1.00
15636;DHT22;7917;50.818;6.972;2023-06-24T14:13:37;30.40;1.00
15636;DHT22;7917;50.818;6.972;2023-06-24T14:16:04;30.50;1.00
15636;DHT22;7917;50.818;6.972;2023-06-24T14:18:31;30.40;1.00
15636;DHT22;7917;50.818;6.972;2023-06-24T14:20:59;30.50;1.00
15636;DHT22;7917;50.818;6.972;2023-06-24T14:23:29;30.80;1.00
15636;DHT22;7917;50.818;6.972;2023-06-24T14:25:57;30.90;1.00
15636;DHT22;7917;50.818;6.972;2023-06-24T14:28:25;31.20;1.00
15636;DHT22;7917;50.818;6.972;2023-06-24T14:30:52;31.80;1.00
15636;DHT22;7917;50.818;6.972;2023-06-24T14:33:19;32.00;1.00
15636;DHT22;7917;50.818;6.972;2023-06-24T14:35:46;32.30;1.00
15636;DHT22;7917;50.818;6.972;2023-06-24T14:38:19;32.40;1.00
15636;DHT22;7917;50.818;6.972;2023-06-24T14:40:46;32.40;1.00
15636;DHT22;7917;50.818;6.972;2023-06-24T14:43:14;32.60;1.00
15636;DHT22;7917;50.818;6.972;2023-06-24T14:45:41;32.50;1.00
15636;DHT22;7917;50.818;6.972;2023-06-24T14:48:08;32.20;1.00
15636;DHT22;7917;50.818;6.972;2023-06-24T14:50:35;32.60;1.00
15636;DHT22;7917;50.818;6.972;2023-06-24T14:53:02;33.10;1.00
15636;DHT22;7917;50.818;6.972;2023-06-24T14:55:29;33.60;1.00
15636;DHT22;7917;50.818;6.972;2023-06-24T14:57:56;33.80;1.00
15636;DHT22;7917;50.818;6.972;2023-06-24T15:00:24;34.00;1.00
15636;DHT22;7917;50.818;6.972;2023-06-24T15:02:51;34.10;1.00
15636;DHT22;7917;50.818;6.972;2023-06-24T15:05:18;33.70;1.00
15636;DHT22;7917;50.818;6.972;2023-06-24T15:07:45;34.50;1.00
15636;DHT22;7917;50.818;6.972;2023-06-24T15:10:12;35.00;1.00
15636;DHT22;7917;50.818;6.972;2023-06-24T15:12:40;35.00;1.00
15636;DHT22;7917;50.818;6.972;2023-06-24T15:15:07;34.90;1.00
15636;DHT22;7917;50.818;6.972;2023-06-24T15:17:35;34.60;1.00
15636;DHT22;7917;50.818;6.972;2023-06-24T15:20:07;34.70;1.00
15636;DHT22;7917;50.818;6.972;2023-06-24T15:22:34;35.20;1.00
15636;DHT22;7917;50.818;6.972;2023-06-24T15:25:01;35.20;1.00
15636;DHT22;7917;50.818;6.972;2023-06-24T15:27:28;35.30;1.00
15636;DHT22;7917;50.818;6.972;2023-06-24T15:29:55;35.10;1.00
15636;DHT22;7917;50.818;6.972;2023-06-24T15:32:22;35.80;1.00
15636;DHT22;7917;50.818;6.972;2023-06-24T15:34:49;36.30;1.00
15636;DHT22;7917;50.818;6.972;2023-06-24T15:37:16;36.30;1.00
15636;DHT22;7917;50.818;6.972;2023-06-24T15:39:43;35.90;1.00
15636;DHT22;7917;50.818;6.972;2023-06-24T15:42:11;35.40;1.00
15636;DHT22;7917;50.818;6.972;2023-06-24T15:44:37;35.60;1.00
15636;DHT22;7917;50.818;6.972;2023-06-24T15:47:05;35.70;1.00
15636;DHT22;7917;50.818;6.972;2023-06-24T15:49:32;35.50;1.00
15636;DHT22;7917;50.818;6.972;2023-06-24T15:51:59;34.90;1.00
15636;DHT22;7917;50.818;6.972;2023-06-24T15:54:27;34.60;1.00
15636;DHT22;7917;50.818;6.972;2023-06-24T15:56:59;33.90;1.00
15636;DHT22;7917;50.818;6.972;2023-06-24T15:59:26;33.60;1.00
15636;DHT22;7917;50.818;6.972;2023-06-24T16:01:53;33.60;1.00
15636;DHT22;7917;50.818;6.972;2023-06-24T16:04:21;34.00;1.00